Time;durP1;ratioP1;P1;durP2;ratioP2;P2;SDS_P1;SDS_P2;PMS_P1;PMS_P2;Temp;Humidity;BMP_temperature;BMP_pressure;BME280_temperature;BME280_humidity;BME280_pressure;Samples;Min_cycle;Max_cycle;Signal;HPM_P1;HPM_P2
2022/11/16 00:01:28;;;;;;;57.13;35.20;;;;;;;10.11;100.00;99737.41;5054621;28;20469;-44
2022/11/16 00:03:56;;;;;;;54.17;34.58;;;;;;;10.11;100.00;99733.13;5054365;28;20403;-45
2022/11/16 00:06:22;;;;;;;62.67;36.15;;;;;;;10.11;100.00;99728.00;5054955;28;20021;-44
2022/11/16 00:11:36;;;;;;;62.95;36.78;;;;;;;10.13;100.00;99736.56;5055059;28;20563;-46
2022/11/16 00:14:02;;;;;;;61.55;37.10;;;;;;;10.12;100.00;99731.41;5054612;28;20033;-43
2022/11/16 00:16:27;;;;;;;59.40;35.05;;;;;;;10.11;100.00;99733.13;5054296;28;20070;-46
2022/11/16 00:18:57;;;;;;;59.45;35.95;;;;;;;10.13;100.00;99743.44;5054273;28;20025;-46
2022/11/16 00:21:23;;;;;;;63.13;37.05;;;;;;;10.12;100.00;99745.16;5054050;28;20020;-47
2022/11/16 00:23:48;;;;;;;60.45;37.08;;;;;;;10.13;100.00;99744.31;5054153;28;20043;-46
2022/11/16 00:26:14;;;;;;;60.80;37.60;;;;;;;10.14;100.00;99751.19;5054650;28;20026;-45
2022/11/16 00:28:39;;;;;;;64.43;38.92;;;;;;;10.14;100.00;99737.47;5054164;28;20033;-46
2022/11/16 00:31:05;;;;;;;68.50;40.20;;;;;;;10.14;100.00;99738.31;5053846;28;20044;-45
2022/11/16 00:33:31;;;;;;;66.32;38.40;;;;;;;10.14;100.00;99735.75;5054269;28;20075;-47
2022/11/16 00:35:56;;;;;;;65.97;39.03;;;;;;;10.15;100.00;99742.63;5053474;28;20029;-45
2022/11/16 00:38:23;;;;;;;63.67;40.53;;;;;;;10.14;100.00;99740.88;5054266;28;20025;-46
2022/11/16 00:40:48;;;;;;;63.83;39.42;;;;;;;10.14;100.00;99735.75;5054006;28;20078;-46
2022/11/16 00:43:14;;;;;;;68.22;39.40;;;;;;;10.15;100.00;99726.31;5053752;28;20029;-46
2022/11/16 00:45:42;;;;;;;65.25;38.72;;;;;;;10.14;100.00;99722.88;5053925;28;20029;-47
2022/11/16 00:48:07;;;;;;;69.20;39.22;;;;;;;10.13;100.00;99726.28;5054038;28;20028;-45
2022/11/16 00:50:32;;;;;;;62.28;39.08;;;;;;;10.14;100.00;99717.72;5053484;28;20016;-46
2022/11/16 00:52:58;;;;;;;64.95;38.00;;;;;;;10.13;100.00;99710.84;5053468;28;20091;-48
2022/11/16 00:55:23;;;;;;;57.45;36.67;;;;;;;10.13;100.00;99700.53;5054098;28;20358;-44
2022/11/16 00:57:48;;;;;;;66.47;39.28;;;;;;;10.13;100.00;99705.69;5052935;28;20049;-46
2022/11/16 01:00:14;;;;;;;63.60;38.42;;;;;;;10.12;100.00;99708.25;5053682;28;20029;-45
2022/11/16 01:02:40;;;;;;;64.95;38.03;;;;;;;10.11;100.00;99711.66;5053793;28;20048;-44
2022/11/16 01:05:06;;;;;;;64.55;38.53;;;;;;;10.13;100.00;99712.56;5052779;28;20464;-47
2022/11/16 01:07:34;;;;;;;68.20;38.97;;;;;;;10.14;100.00;99714.28;5053936;28;20502;-45
2022/11/16 01:09:59;;;;;;;;;;;;;;;10.17;100.00;99712.63;5054039;28;20092;-46
2022/11/16 01:12:24;;;;;;;70.37;38.63;;;;;;;10.14;100.00;99709.16;5053117;28;19967;-47
2022/11/16 01:14:50;;;;;;;65.43;37.63;;;;;;;10.16;100.00;99717.72;5053565;28;20025;-46
2022/11/16 01:17:15;;;;;;;64.50;37.20;;;;;;;10.17;100.00;99719.47;5053669;28;20024;-45
2022/11/16 01:19:40;;;;;;;58.55;36.53;;;;;;;10.18;100.00;99714.34;5052307;28;20025;-45
2022/11/16 01:22:06;;;;;;;59.45;36.35;;;;;;;10.19;100.00;99700.63;5053604;28;20449;-43
2022/11/16 01:24:31;;;;;;;65.00;36.78;;;;;;;10.17;100.00;99692.03;5052997;28;20071;-44
2022/11/16 01:26:57;;;;;;;62.90;37.38;;;;;;;10.16;100.00;99695.44;5052992;28;20439;-48
2022/11/16 01:29:27;;;;;;;65.15;38.20;;;;;;;10.17;100.00;99699.75;5053323;28;20036;-46
2022/11/16 01:31:54;;;;;;;70.55;37.80;;;;;;;10.16;100.00;99697.13;5052606;28;20083;-46
2022/11/16 01:34:19;;;;;;;70.88;39.42;;;;;;;10.15;100.00;99693.72;5052925;28;20369;-46
2022/11/16 01:36:45;;;;;;;74.13;40.35;;;;;;;10.16;100.00;99687.72;5053122;28;20554;-44
2022/11/16 01:39:12;;;;;;;68.53;39.50;;;;;;;10.14;100.00;99684.25;5052720;28;20430;-46
2022/11/16 01:41:37;;;;;;;70.03;40.03;;;;;;;10.16;100.00;99685.16;5053022;28;20078;-44
2022/11/16 01:44:24;;;;;;;70.18;39.15;;;;;;;10.16;100.00;99689.41;5052401;28;20365;-43
2022/11/16 01:46:50;;;;;;;86.68;40.50;;;;;;;10.17;100.00;99684.31;5052093;28;20031;-46
2022/11/16 01:49:19;;;;;;;73.35;39.65;;;;;;;10.19;100.00;99685.16;5053005;28;20025;-47
2022/11/16 01:51:49;;;;;;;75.68;40.75;;;;;;;10.19;100.00;99685.16;5052727;28;20380;-47
2022/11/16 01:54:15;;;;;;;70.68;38.97;;;;;;;10.17;100.00;99679.16;5052535;28;20032;-45
2022/11/16 01:56:44;;;;;;;77.18;41.45;;;;;;;10.19;100.00;99685.16;5052423;28;20037;-45
2022/11/16 01:59:11;;;;;;;76.68;42.28;;;;;;;10.19;100.00;99685.16;5052821;28;20064;-47
2022/11/16 02:01:36;;;;;;;78.13;40.95;;;;;;;10.20;100.00;99681.75;5052378;28;20020;-46
2022/11/16 02:04:02;;;;;;;77.30;40.90;;;;;;;10.19;100.00;99680.03;5052705;28;20048;-47
2022/11/16 02:06:42;;;;;;;85.40;42.33;;;;;;;10.21;100.00;99678.34;5053092;28;20047;-47
2022/11/16 02:09:57;;;;;;;74.60;41.30;;;;;;;10.24;100.00;99676.63;5052660;28;20021;-48
2022/11/16 02:12:44;;;;;;;77.93;40.78;;;;;;;10.25;100.00;99678.38;5052916;28;20025;-46
2022/11/16 02:15:18;;;;;;;73.82;41.38;;;;;;;10.25;100.00;99675.78;5052132;28;20518;-47
2022/11/16 02:17:58;;;;;;;70.95;40.05;;;;;;;10.27;100.00;99674.97;5052539;28;20083;-43
2022/11/16 02:20:41;;;;;;;69.07;40.17;;;;;;;10.29;100.00;99677.56;5052901;28;20032;-46
2022/11/16 02:23:21;;;;;;;67.32;39.35;;;;;;;10.30;100.00;99668.97;5052628;28;20380;-44
2022/11/16 02:26:05;;;;;;;69.30;40.17;;;;;;;10.32;100.00;99670.72;5052366;28;20412;-47
2022/11/16 02:29:02;;;;;;;68.68;39.33;;;;;;;10.33;100.00;99674.19;5052331;28;20048;-45
2022/11/16 02:31:34;;;;;;;66.15;39.75;;;;;;;10.33;100.00;99666.47;5052644;28;20029;-46
2022/11/16 02:34:00;;;;;;;68.97;39.03;;;;;;;10.32;100.00;99659.56;5052608;28;20556;-46
2022/11/16 02:36:26;;;;;;;69.57;38.88;;;;;;;10.34;100.00;99660.44;5051835;28;20025;-46
2022/11/16 02:39:05;;;;;;;63.88;38.15;;;;;;;10.36;100.00;99667.38;5052182;28;20033;-44
2022/11/16 02:41:34;;;;;;;63.95;38.28;;;;;;;10.38;100.00;99670.00;5052682;28;20044;-45
2022/11/16 02:44:05;;;;;;;64.18;38.90;;;;;;;10.40;100.00;99673.44;5051302;28;20541;-45
2022/11/16 02:46:35;;;;;;;69.10;39.15;;;;;;;10.40;100.00;99677.72;5052512;28;20036;-48
2022/11/16 02:49:04;;;;;;;58.20;36.80;;;;;;;10.38;100.00;99670.00;5051691;28;20025;-48
2022/11/16 02:51:31;;;;;;;56.85;34.08;;;;;;;10.39;100.00;99682.00;5052167;28;20534;-46
2022/11/16 02:54:01;;;;;;;48.53;30.83;;;;;;;10.39;100.00;99682.00;5052337;28;20102;-48
2022/11/16 02:56:27;;;;;;;51.67;32.33;;;;;;;10.37;100.00;99678.56;5052808;28;20365;-46
2022/11/16 02:58:53;;;;;;;45.35;30.00;;;;;;;10.36;100.00;99687.13;5055421;28;20049;-46
2022/11/16 03:01:26;;;;;;;49.92;29.63;;;;;;;10.33;100.00;99681.91;5056173;28;20380;-47
2022/11/16 03:03:58;;;;;;;44.78;28.52;;;;;;;10.29;100.00;99681.00;5055264;28;20028;-47
2022/11/16 03:06:28;;;;;;;43.88;25.30;;;;;;;10.26;100.00;99686.09;5055839;28;20372;-46
2022/11/16 03:09:01;;;;;;;41.47;25.23;;;;;;;10.25;100.00;99691.25;5055961;28;20033;-46
2022/11/16 03:14:17;;;;;;;38.20;24.55;;;;;;;10.19;100.00;99681.75;5056245;28;20594;-46
2022/11/16 03:16:47;;;;;;;34.05;23.55;;;;;;;10.16;100.00;99679.13;5055572;28;20472;-47
2022/11/16 03:19:19;;;;;;;45.72;26.00;;;;;;;10.15;100.00;99677.41;5055294;28;20025;-47
2022/11/16 03:21:57;;;;;;;34.75;23.80;;;;;;;10.14;100.00;99676.53;5055623;28;20021;-45
2022/11/16 03:24:23;;;;;;;40.70;24.05;;;;;;;10.10;100.00;99685.06;5055242;28;20072;-46
2022/11/16 03:27:00;;;;;;;36.47;24.05;;;;;;;10.07;100.00;99692.75;5055059;28;20436;-48
2022/11/16 03:29:29;;;;;;;41.03;26.05;;;;;;;10.07;100.00;99681.56;5055863;28;20106;-46
2022/11/16 03:32:02;;;;;;;43.30;25.63;;;;;;;10.04;100.00;99684.97;5054674;28;20024;-44
2022/11/16 03:34:32;;;;;;;40.95;26.45;;;;;;;10.00;100.00;99688.34;5055495;28;20029;-47
2022/11/16 03:36:59;;;;;;;40.33;23.92;;;;;;;9.98;100.00;99697.75;5055286;28;20495;-46
2022/11/16 03:39:30;;;;;;;40.60;24.17;;;;;;;9.94;100.00;99694.31;5054905;28;20133;-46
2022/11/16 03:41:58;;;;;;;41.53;23.50;;;;;;;9.94;100.00;99703.72;5055226;28;20025;-47
2022/11/16 03:44:24;;;;;;;;;;;;;;;10.00;100.00;99708.94;5055887;28;20029;-46
2022/11/16 03:46:49;;;;;;;34.35;22.52;;;;;;;9.91;100.00;99703.69;5054338;28;19912;-46
2022/11/16 03:49:15;;;;;;;34.05;21.65;;;;;;;9.87;100.00;99703.63;5055344;28;20037;-45
2022/11/16 03:51:40;;;;;;;32.38;20.80;;;;;;;9.83;100.00;99708.72;5055119;28;20449;-43
2022/11/16 03:54:06;;;;;;;29.02;19.05;;;;;;;9.80;100.00;99716.38;5054570;28;20075;-46
2022/11/16 03:56:31;;;;;;;26.40;16.63;;;;;;;9.73;100.00;99710.28;5055138;28;20358;-47
2022/11/16 03:58:56;;;;;;;28.60;16.63;;;;;;;9.72;100.00;99718.84;5054949;28;20035;-47
2022/11/16 04:01:22;;;;;;;24.08;15.07;;;;;;;9.67;100.00;99717.91;5054349;28;20491;-47
2022/11/16 04:03:47;;;;;;;20.73;13.82;;;;;;;9.64;100.00;99723.03;5054665;28;20025;-43
2022/11/16 04:25:46;;;;;;;16.50;9.02;;;;;;;9.22;100.00;99730.94;5054397;28;20044;-45
2022/11/16 04:28:13;;;;;;;16.38;8.95;;;;;;;9.19;100.00;99733.47;5054084;28;20082;-44
2022/11/16 04:39:11;;;;;;;15.70;8.13;;;;;;;9.13;100.00;99738.50;5054444;28;20068;-45
2022/11/16 04:44:20;;;;;;;25.45;9.40;;;;;;;9.03;100.00;99746.88;5054118;28;20036;-46
2022/11/16 04:49:29;;;;;;;19.08;9.80;;;;;;;8.97;100.00;99744.19;5053955;28;20114;-47
2022/11/16 04:51:55;;;;;;;18.85;10.38;;;;;;;8.94;100.00;99757.00;5053704;28;20063;-46
2022/11/16 04:54:20;;;;;;;25.00;10.82;;;;;;;8.93;100.00;99760.38;5054048;28;20047;-45
2022/11/16 04:56:46;;;;;;;19.85;10.52;;;;;;;8.92;100.00;99763.78;5052915;28;20500;-46
2022/11/16 04:59:11;;;;;;;21.17;9.48;;;;;;;8.87;100.00;99767.16;5054089;28;20599;-45
2022/11/16 05:04:21;;;;;;;24.08;10.40;;;;;;;8.82;100.00;99773.00;5053458;28;20499;-45
2022/11/16 05:06:46;;;;;;;23.40;10.32;;;;;;;8.84;100.00;99776.50;5053314;28;20025;-47
2022/11/16 05:09:12;;;;;;;27.08;11.13;;;;;;;8.82;100.00;99779.03;5053871;28;20036;-43
2022/11/16 05:11:38;;;;;;;30.38;11.45;;;;;;;8.80;100.00;99778.13;5053041;28;20085;-46
2022/11/16 05:14:04;;;;;;;26.70;11.85;;;;;;;8.79;100.00;99779.00;5053325;28;20065;-47
2022/11/16 05:16:30;;;;;;;27.08;11.30;;;;;;;8.74;100.00;99770.31;5053178;28;20072;-44
2022/11/16 05:21:39;;;;;;;24.13;10.35;;;;;;;8.69;100.00;99780.50;5053589;28;20075;-44
2022/11/16 05:26:48;;;;;;;22.73;10.38;;;;;;;8.62;100.00;99788.06;5053231;28;20388;-47
2022/11/16 05:29:13;;;;;;;28.63;11.30;;;;;;;8.58;100.00;99784.53;5053519;28;20029;-45
2022/11/16 05:31:39;;;;;;;31.10;11.02;;;;;;;8.56;100.00;99781.09;5052832;28;20037;-46
2022/11/16 05:34:04;;;;;;;28.13;10.60;;;;;;;8.47;100.00;99781.78;5053011;28;20028;-44
2022/11/16 05:36:29;;;;;;;31.33;11.63;;;;;;;8.46;100.00;99779.19;5053472;28;20380;-44
2022/11/16 05:38:55;;;;;;;24.67;10.57;;;;;;;8.44;100.00;99776.53;5052346;28;20052;-46
2022/11/16 05:41:20;;;;;;;23.98;10.05;;;;;;;8.37;100.00;99769.53;5053368;28;20032;-46
2022/11/16 05:43:45;;;;;;;21.23;10.30;;;;;;;8.33;100.00;99766.03;5052938;28;20025;-47
2022/11/16 05:46:10;;;;;;;23.00;10.43;;;;;;;8.26;100.00;99774.44;5052360;28;20102;-46
2022/11/16 05:48:36;;;;;;;29.83;11.23;;;;;;;8.17;100.00;99767.41;5053204;28;20024;-43
2022/11/16 05:51:01;;;;;;;25.65;11.25;;;;;;;8.19;100.00;99764.88;5052955;28;20455;-43
2022/11/16 05:53:26;;;;;;;26.35;11.82;;;;;;;8.06;100.00;99772.28;5052448;28;20025;-44
2022/11/16 05:55:52;;;;;;;27.95;10.93;;;;;;;8.01;100.00;99776.44;5052726;28;20036;-48
2022/11/16 05:58:17;;;;;;;31.63;10.98;;;;;;;7.91;100.00;99775.41;5052809;28;20049;-45
2022/11/16 06:00:45;;;;;;;34.28;12.35;;;;;;;7.91;100.00;99772.81;5051849;28;20071;-46
2022/11/16 06:03:10;;;;;;;28.63;10.98;;;;;;;7.82;100.00;99775.16;5052797;28;20059;-45
2022/11/16 06:05:36;;;;;;;35.55;12.27;;;;;;;7.77;100.00;99779.31;5053028;28;20025;-46
2022/11/16 06:08:01;;;;;;;34.95;13.63;;;;;;;7.71;100.00;99781.75;5051708;28;20032;-46
2022/11/16 06:10:26;;;;;;;30.25;12.98;;;;;;;7.68;100.00;99787.69;5052970;28;20023;-45
2022/11/16 06:12:51;;;;;;;30.15;13.27;;;;;;;7.70;100.00;99790.28;5052056;28;20021;-44
2022/11/16 06:15:17;;;;;;;40.95;15.15;;;;;;;7.73;100.00;99793.78;5052417;28;20373;-46
2022/11/16 06:17:42;;;;;;;34.78;15.20;;;;;;;7.67;100.00;99798.75;5052412;28;20033;-44
2022/11/16 06:20:08;;;;;;;38.35;15.35;;;;;;;7.65;100.00;99802.97;5052311;28;20056;-46
2022/11/16 06:22:34;;;;;;;37.10;17.42;;;;;;;7.71;100.00;99803.13;5052563;28;20022;-46
2022/11/16 06:24:59;;;;;;;38.45;17.42;;;;;;;7.69;100.00;99798.78;5052431;28;20860;-44
2022/11/16 06:27:24;;;;;;;42.17;18.15;;;;;;;7.68;100.00;99807.31;5052215;28;20100;-46
2022/11/16 06:29:49;;;;;;;41.83;19.02;;;;;;;7.67;100.00;99810.69;5052051;28;20044;-43
2022/11/16 06:32:15;;;;;;;45.28;20.00;;;;;;;7.67;100.00;99811.59;5056640;28;20028;-43
2022/11/16 06:34:40;;;;;;;42.38;18.63;;;;;;;7.58;100.00;99817.34;5055938;28;20025;-42
2022/11/16 06:37:05;;;;;;;49.30;20.40;;;;;;;7.61;100.00;99816.56;5056629;28;20029;-46
2022/11/16 06:39:30;;;;;;;49.03;20.75;;;;;;;7.51;100.00;99825.69;5056577;28;20033;-44
2022/11/16 06:41:56;;;;;;;43.03;20.15;;;;;;;7.53;100.00;99821.50;5055491;28;20028;-43
2022/11/16 06:44:21;;;;;;;43.65;19.02;;;;;;;7.51;100.00;99820.56;5056357;28;20098;-44
2022/11/16 06:46:46;;;;;;;41.97;20.00;;;;;;;7.48;100.00;99829.91;5055968;28;20021;-44
2022/11/16 06:49:11;;;;;;;43.67;18.92;;;;;;;7.49;100.00;99826.47;5055470;28;20032;-46
2022/11/16 06:51:37;;;;;;;46.30;18.92;;;;;;;7.45;100.00;99840.94;5056580;28;20050;-46
2022/11/16 06:54:02;;;;;;;41.42;18.65;;;;;;;7.42;100.00;99835.72;5055860;28;20120;-46
2022/11/16 06:56:28;;;;;;;37.40;18.27;;;;;;;7.45;100.00;99840.06;5055331;28;20036;-44
2022/11/16 06:58:55;;;;;;;38.55;19.52;;;;;;;7.43;100.00;99840.03;5055868;28;20048;-44
2022/11/16 07:01:21;;;;;;;46.50;19.35;;;;;;;7.43;100.00;99837.47;5055916;28;20021;-47
2022/11/16 07:03:46;;;;;;;43.65;19.23;;;;;;;7.42;100.00;99840.84;5055198;28;20514;-44
2022/11/16 07:06:13;;;;;;;39.58;18.33;;;;;;;7.37;100.00;99848.44;5056101;28;20056;-46
2022/11/16 07:08:38;;;;;;;39.38;16.45;;;;;;;7.35;100.00;99842.38;5056019;28;20056;-44
2022/11/16 07:11:05;;;;;;;38.78;17.33;;;;;;;7.35;100.00;99839.81;5054936;28;20068;-46
2022/11/16 07:13:32;;;;;;;39.65;17.58;;;;;;;7.34;100.00;99840.66;5055845;28;20029;-44
2022/11/16 07:16:02;;;;;;;39.90;18.00;;;;;;;7.35;100.00;99847.50;5055637;28;20036;-44
2022/11/16 07:18:28;;;;;;;40.28;18.05;;;;;;;7.36;100.00;99841.56;5055510;28;20029;-47
2022/11/16 07:20:53;;;;;;;47.85;16.75;;;;;;;7.35;100.00;99846.66;5055445;28;20352;-42
2022/11/16 07:23:18;;;;;;;35.70;16.17;;;;;;;7.35;100.00;99849.22;5055313;28;20402;-46
2022/11/16 07:25:46;;;;;;;43.53;16.38;;;;;;;7.33;100.00;99853.44;5055243;28;20058;-44
2022/11/16 07:28:11;;;;;;;40.95;18.92;;;;;;;7.35;100.00;99849.22;5055668;28;20037;-43
2022/11/16 07:30:36;;;;;;;49.88;19.17;;;;;;;7.36;100.00;99859.50;5055337;28;20349;-48
2022/11/16 07:33:01;;;;;;;48.20;20.23;;;;;;;7.36;100.00;99862.06;5055005;28;20037;-44
2022/11/16 07:35:27;;;;;;;63.25;21.27;;;;;;;7.35;100.00;99862.91;5055625;28;20024;-43
2022/11/16 07:37:52;;;;;;;66.10;23.23;;;;;;;7.38;100.00;99872.38;5054600;28;20017;-47
2022/11/16 07:40:18;;;;;;;59.75;23.50;;;;;;;7.38;100.00;99886.03;5055211;28;20021;-47
2022/11/16 07:42:44;;;;;;;55.33;23.60;;;;;;;7.36;100.00;99874.88;5054212;28;20488;-46
2022/11/16 07:45:10;;;;;;;52.20;23.05;;;;;;;7.38;100.00;99885.19;5054557;28;20427;-43
2022/11/16 07:47:36;;;;;;;57.60;22.75;;;;;;;7.39;100.00;99877.53;5055504;28;20021;-45
2022/11/16 07:50:04;;;;;;;57.63;23.27;;;;;;;7.43;100.00;99877.63;5055118;28;20029;-46
2022/11/16 07:52:29;;;;;;;67.72;24.02;;;;;;;7.42;100.00;99876.75;5054297;28;20071;-46
2022/11/16 07:54:54;;;;;;;56.80;23.55;;;;;;;7.40;100.00;99884.41;5054916;28;20045;-46
2022/11/16 07:57:20;;;;;;;53.15;21.92;;;;;;;7.43;100.00;99883.59;5054879;28;20443;-46
2022/11/16 07:59:45;;;;;;;60.95;23.88;;;;;;;7.49;100.00;99891.47;5053934;28;20102;-44
2022/11/16 08:02:10;;;;;;;54.97;22.55;;;;;;;7.49;100.00;99888.91;5055263;28;20032;-44
2022/11/16 08:04:37;;;;;;;54.35;22.38;;;;;;;7.53;100.00;99879.59;5055068;28;20033;-43
2022/11/16 08:07:03;;;;;;;52.17;21.23;;;;;;;7.55;100.00;99886.50;5054010;28;20044;-46
2022/11/16 08:09:28;;;;;;;49.70;19.90;;;;;;;7.57;100.00;99891.66;5055083;28;20361;-44
2022/11/16 08:11:53;;;;;;;45.67;17.95;;;;;;;7.58;100.00;99896.84;5054426;28;20078;-45
2022/11/16 08:14:19;;;;;;;49.97;17.60;;;;;;;7.61;100.00;99897.75;5053951;28;20112;-44
2022/11/16 08:16:44;;;;;;;45.10;16.40;;;;;;;7.64;100.00;99897.81;5054580;28;20060;-46
2022/11/16 08:19:10;;;;;;;41.15;16.52;;;;;;;7.66;100.00;99896.19;5054710;28;20033;-44
2022/11/16 08:21:35;;;;;;;43.40;14.68;;;;;;;7.71;100.00;99894.59;5054086;28;20113;-43
2022/11/16 08:24:00;;;;;;;41.40;14.32;;;;;;;7.79;100.00;99907.63;5054510;28;20029;-46
2022/11/16 08:26:26;;;;;;;38.17;12.65;;;;;;;7.82;100.00;99900.84;5054058;28;20107;-43
2022/11/16 08:28:52;;;;;;;38.40;13.10;;;;;;;7.82;100.00;99905.97;5053912;28;20021;-45
2022/11/16 08:31:23;;;;;;;35.92;12.27;;;;;;;7.85;100.00;99902.63;5054709;28;20017;-44
2022/11/16 08:33:50;;;;;;;43.20;11.55;;;;;;;7.86;100.00;99899.25;5053758;28;20069;-45
2022/11/16 08:36:16;;;;;;;46.27;13.07;;;;;;;7.86;100.00;99894.09;5054331;28;20096;-42
2022/11/16 08:38:49;;;;;;;34.47;9.95;;;;;;;7.87;100.00;99901.84;5053999;28;20107;-43
2022/11/16 08:41:15;;;;;;;38.47;10.07;;;;;;;7.89;100.00;99905.31;5053265;28;20349;-46
2022/11/16 08:43:41;;;;;;;34.45;10.27;;;;;;;7.89;100.00;99905.31;5052308;28;20021;-43
2022/11/16 08:46:08;;;;;;;38.58;10.75;;;;;;;7.87;100.00;99896.69;5053950;28;20028;-46
2022/11/16 08:48:34;;;;;;;35.90;10.70;;;;;;;7.91;100.00;99910.47;5052021;28;20430;-46
2022/11/16 08:51:08;;;;;;;40.45;10.07;;;;;;;7.94;100.00;99912.25;5053698;28;20750;-43
2022/11/16 08:53:33;;;;;;;47.22;11.20;;;;;;;7.96;100.00;99915.75;5053967;28;20025;-45
2022/11/16 08:56:07;;;;;;;40.28;10.30;;;;;;;7.96;100.00;99911.47;5052999;28;20036;-44
2022/11/16 08:58:34;;;;;;;42.40;10.48;;;;;;;7.99;100.00;99914.13;5053741;28;20063;-43
2022/11/16 09:01:15;;;;;;;39.42;9.30;;;;;;;8.00;100.00;99920.97;5053732;28;20017;-46
2022/11/16 09:03:41;;;;;;;43.33;10.48;;;;;;;8.05;100.00;99921.09;5052764;28;20036;-42
2022/11/16 09:06:07;;;;;;;51.95;9.57;;;;;;;8.07;100.00;99925.44;5053783;28;20029;-46
2022/11/16 09:08:34;;;;;;;37.35;8.75;;;;;;;8.08;100.00;99922.06;5053912;28;20021;-45
2022/11/16 09:11:06;;;;;;;37.63;8.82;;;;;;;8.11;100.00;99921.25;5053159;28;20048;-43
2022/11/16 09:13:32;;;;;;;40.17;8.25;;;;;;;8.15;100.00;99917.94;5053858;28;20028;-42
2022/11/16 09:15:59;;;;;;;42.38;8.57;;;;;;;8.20;100.00;99926.59;5052730;28;20384;-47
2022/11/16 09:18:25;;;;;;;42.35;8.93;;;;;;;8.27;100.00;99926.75;5053160;28;20468;-45
2022/11/16 09:20:50;;;;;;;35.83;7.82;;;;;;;8.39;100.00;99929.59;5053191;28;20017;-45
2022/11/16 09:23:16;;;;;;;43.38;8.95;;;;;;;8.60;100.00;99923.25;5052819;28;20392;-46
2022/11/16 09:25:44;;;;;;;40.17;8.63;;;;;;;8.74;100.00;99924.47;5053300;28;20452;-46
2022/11/16 09:28:10;;;;;;;37.55;7.45;;;;;;;8.89;100.00;99923.91;5053558;28;20035;-45
2022/11/16 09:30:35;;;;;;;35.05;7.63;;;;;;;9.18;100.00;99932.25;5052552;28;20025;-43
2022/11/16 09:33:00;;;;;;;38.03;7.57;;;;;;;9.34;100.00;99928.25;5053037;28;20067;-46
2022/11/16 09:35:26;;;;;;;31.95;7.18;;;;;;;9.52;100.00;99930.31;5053187;28;20028;-43
2022/11/16 09:37:51;;;;;;;38.25;7.20;;;;;;;9.65;100.00;99928.00;5052196;28;20036;-45
2022/11/16 09:40:16;;;;;;;27.63;6.18;;;;;;;9.76;100.00;99921.34;5053310;28;20431;-45
2022/11/16 09:43:00;;;;;;;29.35;6.38;;;;;;;9.84;100.00;99935.22;5052960;28;20036;-46
2022/11/16 09:45:44;;;;;;;24.85;6.20;;;;;;;9.99;100.00;99933.75;5052347;28;20032;-47
2022/11/16 09:48:13;;;;;;;23.55;7.20;;;;;;;9.99;100.00;99938.88;5052930;28;20591;-46
2022/11/16 09:50:45;;;;;;;26.65;7.18;;;;;;;10.08;100.00;99933.88;5052954;28;20515;-45
2022/11/16 09:53:41;;;;;;;26.23;5.97;;;;;;;10.33;100.00;99924.00;5052190;28;20427;-46
2022/11/16 09:56:12;;;;;;;28.52;6.15;;;;;;;10.52;100.00;99933.78;5052849;28;20029;-46
2022/11/16 09:59:02;;;;;;;26.30;5.80;;;;;;;10.58;100.00;99939.88;5051908;28;20111;-44
2022/11/16 10:01:48;;;;;;;27.00;6.10;;;;;;;10.38;100.00;99950.75;5053120;28;20021;-46
2022/11/16 10:04:42;;;;;;;25.90;6.68;;;;;;;10.39;100.00;99939.56;5052798;28;20479;-46
2022/11/16 10:07:16;;;;;;;27.92;5.75;;;;;;;10.62;100.00;99946.78;5051857;28;20368;-44
2022/11/16 10:09:43;;;;;;;22.95;5.40;;;;;;;10.60;99.34;99948.47;5052381;28;20476;-46
2022/11/16 10:12:42;;;;;;;23.48;5.68;;;;;;;10.77;99.21;99940.97;5052325;28;20017;-44
2022/11/16 10:15:22;;;;;;;28.95;5.63;;;;;;;10.83;95.65;99943.66;5052726;28;20025;-47
2022/11/16 10:18:22;;;;;;;27.52;5.03;;;;;;;10.91;95.96;99941.19;5052645;28;20017;-44
2022/11/16 10:21:29;;;;;;;21.30;6.15;;;;;;;11.04;94.98;99931.06;5039469;28;20507;-45
2022/11/16 10:24:26;;;;;;;22.55;4.93;;;;;;;11.17;96.78;99932.06;5052605;28;20039;-46
2022/11/16 10:27:29;;;;;;;24.30;4.72;;;;;;;11.28;95.17;99931.34;5051668;28;20029;-46
2022/11/16 10:30:07;;;;;;;25.48;5.80;;;;;;;11.38;94.65;99932.31;5052537;28;20068;-45
2022/11/16 10:32:54;;;;;;;22.70;4.82;;;;;;;11.58;92.75;99925.66;5052871;28;20074;-46
2022/11/16 10:35:44;;;;;;;22.85;5.03;;;;;;;11.65;91.26;99926.59;5051916;28;20416;-45
2022/11/16 10:38:12;;;;;;;25.63;5.20;;;;;;;11.44;89.46;99920.34;5052717;28;20029;-46
2022/11/16 10:40:39;;;;;;;22.17;4.88;;;;;;;11.65;90.35;99924.88;5051877;28;20060;-46
2022/11/16 10:43:16;;;;;;;23.67;4.93;;;;;;;11.65;89.71;99929.19;5052280;28;20044;-43
2022/11/16 10:45:54;;;;;;;32.33;5.45;;;;;;;11.63;88.93;99926.59;5052237;28;20051;-45
2022/11/16 10:48:40;;;;;;;29.10;4.93;;;;;;;11.95;90.64;99922.56;5051734;28;20147;-47
2022/11/16 10:51:06;;;;;;;20.95;4.85;;;;;;;12.07;86.63;99925.31;5052335;28;20423;-44
2022/11/16 10:53:37;;;;;;;30.50;5.05;;;;;;;12.19;86.03;99927.97;5052537;28;20021;-44
2022/11/16 10:56:14;;;;;;;29.33;4.80;;;;;;;12.27;87.40;99922.03;5051315;28;20029;-46
2022/11/16 10:58:54;;;;;;;23.73;5.28;;;;;;;12.30;86.38;99919.44;5052068;28;20049;-46
2022/11/16 11:01:39;;;;;;;19.40;4.30;;;;;;;12.50;88.07;99927.34;5051978;28;20033;-46
2022/11/16 11:04:23;;;;;;;24.15;5.22;;;;;;;12.27;85.79;99934.94;5051980;28;20376;-45
2022/11/16 11:06:51;;;;;;;24.13;4.63;;;;;;;11.95;83.19;99927.75;5052226;28;20025;-46
2022/11/16 11:09:25;;;;;;;15.52;3.42;;;;;;;12.00;84.64;99932.13;5051372;28;20377;-45
2022/11/16 11:14:58;;;;;;;23.77;4.47;;;;;;;11.94;85.08;99918.25;5052195;28;20124;-46
2022/11/16 11:17:24;;;;;;;17.83;4.07;;;;;;;12.17;84.02;99914.22;5052180;28;20025;-44
2022/11/16 11:19:59;;;;;;;19.52;3.85;;;;;;;12.28;83.15;99916.00;5055695;28;20317;-46
2022/11/16 11:22:26;;;;;;;21.70;3.67;;;;;;;12.08;84.13;99918.41;5055379;28;20029;-45
2022/11/16 11:24:52;;;;;;;25.30;4.93;;;;;;;11.80;82.05;99919.00;5055307;28;20021;-47
2022/11/16 11:27:27;;;;;;;22.58;4.38;;;;;;;11.63;82.99;99915.38;5055987;28;20067;-46
2022/11/16 11:29:57;;;;;;;21.92;4.10;;;;;;;11.45;83.69;99923.78;5054532;28;20472;-44
2022/11/16 11:32:29;;;;;;;31.30;4.03;;;;;;;11.46;83.88;99918.63;5056026;28;20044;-43
2022/11/16 11:34:56;;;;;;;27.20;4.05;;;;;;;11.34;83.20;99901.31;5055146;28;20044;-45
2022/11/16 11:37:27;;;;;;;22.23;4.30;;;;;;;11.20;85.58;99896.00;5054838;28;20029;-43
2022/11/16 11:40:17;;;;;;;30.50;4.07;;;;;;;11.24;86.05;99888.31;5055245;28;20161;-45
2022/11/16 11:42:58;;;;;;;23.05;3.78;;;;;;;11.11;85.72;99895.03;5055016;28;20494;-46
2022/11/16 11:45:45;;;;;;;25.83;4.28;;;;;;;10.97;85.81;99898.28;5054602;28;20052;-45
2022/11/16 11:48:24;;;;;;;23.27;3.83;;;;;;;10.90;86.95;99896.50;5055328;28;20075;-46
2022/11/16 11:50:54;;;;;;;21.95;4.00;;;;;;;10.81;87.04;99894.66;5054160;28;20025;-45
2022/11/16 11:53:37;;;;;;;26.25;4.28;;;;;;;10.74;87.51;99899.72;5055435;28;20029;-45
2022/11/16 11:56:03;;;;;;;24.15;4.20;;;;;;;10.73;88.20;99892.81;5055042;28;20052;-45
2022/11/16 11:58:31;;;;;;;16.30;4.07;;;;;;;10.64;87.28;99888.41;5054124;28;20083;-45
2022/11/16 12:01:21;;;;;;;22.70;3.95;;;;;;;10.63;88.49;99886.69;5054771;28;20036;-46
2022/11/16 12:04:20;;;;;;;24.88;4.60;;;;;;;10.74;89.33;99885.09;5054851;28;20036;-45
2022/11/16 12:06:58;;;;;;;32.53;4.00;;;;;;;11.01;86.84;99878.56;5053964;28;20032;-46
2022/11/16 12:09:42;;;;;;;23.60;4.55;;;;;;;11.12;87.59;99878.72;5054928;28;20021;-41
2022/11/16 12:12:26;;;;;;;22.02;4.38;;;;;;;11.22;86.49;99880.56;5054326;28;20025;-44
2022/11/16 12:15:07;;;;;;;22.75;4.30;;;;;;;11.52;85.99;99874.84;5054629;28;20029;-42
2022/11/16 12:18:01;;;;;;;22.02;4.38;;;;;;;11.63;86.13;99871.50;5054892;28;20033;-46
2022/11/16 12:20:31;;;;;;;26.95;5.18;;;;;;;11.66;83.18;99864.66;5054110;28;20029;-46